sensor_id;sensor_type;location;lat;lon;timestamp;pressure;altitude;pressure_sealevel;temperature;humidity
34506;BME280;20748;42.632;23.198;2023-01-28T00:02:27;91265.53;;;-1.26;100.00
34506;BME280;20748;42.632;23.198;2023-01-28T00:05:01;91271.94;;;-1.24;100.00
34506;BME280;20748;42.632;23.198;2023-01-28T00:07:34;91264.41;;;-1.36;100.00
34506;BME280;20748;42.632;23.198;2023-01-28T00:10:06;91281.25;;;-1.40;100.00
34506;BME280;20748;42.632;23.198;2023-01-28T00:12:38;91278.00;;;-1.35;100.00
34506;BME280;20748;42.632;23.198;2023-01-28T00:15:10;91283.34;;;-1.37;100.00
34506;BME280;20748;42.632;23.198;2023-01-28T00:17:44;91285.56;;;-1.45;100.00
34506;BME280;20748;42.632;23.198;2023-01-28T00:20:16;91291.53;;;-1.62;100.00
34506;BME280;20748;42.632;23.198;2023-01-28T00:22:48;91296.25;;;-1.76;100.00
34506;BME280;20748;42.632;23.198;2023-01-28T00:25:23;91295.72;;;-1.78;100.00
34506;BME280;20748;42.632;23.198;2023-01-28T00:27:55;91290.66;;;-1.73;100.00
34506;BME280;20748;42.632;23.198;2023-01-28T00:30:27;91300.91;;;-1.73;100.00
34506;BME280;20748;42.632;23.198;2023-01-28T00:33:01;91299.75;;;-1.60;100.00
34506;BME280;20748;42.632;23.198;2023-01-28T00:35:33;91303.25;;;-1.66;100.00
34506;BME280;20748;42.632;23.198;2023-01-28T00:38:08;91303.81;;;-1.64;100.00
34506;BME280;20748;42.632;23.198;2023-01-28T00:40:40;91304.34;;;-1.62;100.00
34506;BME280;20748;42.632;23.198;2023-01-28T00:43:13;91307.25;;;-1.53;100.00
34506;BME280;20748;42.632;23.198;2023-01-28T00:45:46;91302.19;;;-1.48;100.00
34506;BME280;20748;42.632;23.198;2023-01-28T00:48:22;91310.94;;;-1.44;100.00
34506;BME280;20748;42.632;23.198;2023-01-28T00:50:54;91300.88;;;-1.51;100.00
34506;BME280;20748;42.632;23.198;2023-01-28T00:53:26;91307.47;;;-1.55;100.00
34506;BME280;20748;42.632;23.198;2023-01-28T00:55:58;91300.47;;;-1.65;100.00
34506;BME280;20748;42.632;23.198;2023-01-28T00:58:31;91312.00;;;-1.62;100.00
34506;BME280;20748;42.632;23.198;2023-01-28T01:01:07;91313.13;;;-1.53;100.00
34506;BME280;20748;42.632;23.198;2023-01-28T01:03:40;91311.34;;;-1.52;100.00
34506;BME280;20748;42.632;23.198;2023-01-28T01:06:13;91310.19;;;-1.67;100.00
34506;BME280;20748;42.632;23.198;2023-01-28T01:08:46;91312.19;;;-1.69;100.00
34506;BME280;20748;42.632;23.198;2023-01-28T01:11:22;91313.59;;;-1.56;100.00
34506;BME280;20748;42.632;23.198;2023-01-28T01:13:56;91318.78;;;-1.51;100.00
34506;BME280;20748;42.632;23.198;2023-01-28T01:16:29;91308.06;;;-1.47;100.00
34506;BME280;20748;42.632;23.198;2023-01-28T01:19:04;91315.50;;;-1.46;100.00
34506;BME280;20748;42.632;23.198;2023-01-28T01:21:37;91312.53;;;-1.38;100.00
34506;BME280;20748;42.632;23.198;2023-01-28T01:24:09;91315.88;;;-1.32;100.00
34506;BME280;20748;42.632;23.198;2023-01-28T01:26:41;91318.09;;;-1.41;100.00
34506;BME280;20748;42.632;23.198;2023-01-28T01:29:14;91316.13;;;-1.33;100.00
34506;BME280;20748;42.632;23.198;2023-01-28T01:31:46;91323.84;;;-1.56;100.00
34506;BME280;20748;42.632;23.198;2023-01-28T01:34:19;91324.84;;;-1.57;100.00
34506;BME280;20748;42.632;23.198;2023-01-28T01:36:53;91321.50;;;-1.57;100.00
34506;BME280;20748;42.632;23.198;2023-01-28T01:39:25;91323.44;;;-1.47;100.00
34506;BME280;20748;42.632;23.198;2023-01-28T01:41:58;91323.78;;;-1.39;100.00
34506;BME280;20748;42.632;23.198;2023-01-28T01:47:36;91319.94;;;-1.36;100.00
34506;BME280;20748;42.632;23.198;2023-01-28T01:50:12;91325.03;;;-1.64;100.00
34506;BME280;20748;42.632;23.198;2023-01-28T01:52:47;91325.72;;;-1.46;100.00
34506;BME280;20748;42.632;23.198;2023-01-28T01:55:22;91327.59;;;-1.41;100.00
34506;BME280;20748;42.632;23.198;2023-01-28T01:57:57;91320.88;;;-1.47;100.00
34506;BME280;20748;42.632;23.198;2023-01-28T02:00:31;91321.69;;;-1.42;100.00
34506;BME280;20748;42.632;23.198;2023-01-28T02:03:03;91326.00;;;-1.42;100.00
34506;BME280;20748;42.632;23.198;2023-01-28T02:05:36;91327.63;;;-1.36;100.00
34506;BME280;20748;42.632;23.198;2023-01-28T02:08:09;91330.63;;;-1.44;100.00
34506;BME280;20748;42.632;23.198;2023-01-28T02:10:57;91334.81;;;-1.60;100.00
34506;BME280;20748;42.632;23.198;2023-01-28T02:13:32;91343.84;;;-1.53;100.00
34506;BME280;20748;42.632;23.198;2023-01-28T02:16:06;91334.06;;;-1.56;100.00
34506;BME280;20748;42.632;23.198;2023-01-28T02:18:38;91330.56;;;-1.50;100.00
34506;BME280;20748;42.632;23.198;2023-01-28T02:21:20;91334.59;;;-1.54;100.00
34506;BME280;20748;42.632;23.198;2023-01-28T02:24:02;91327.19;;;-1.55;100.00
34506;BME280;20748;42.632;23.198;2023-01-28T02:26:41;91335.03;;;-1.62;100.00
34506;BME280;20748;42.632;23.198;2023-01-28T02:29:19;91335.03;;;-1.62;100.00
34506;BME280;20748;42.632;23.198;2023-01-28T02:31:56;91337.13;;;-1.59;100.00
34506;BME280;20748;42.632;23.198;2023-01-28T02:34:33;91334.91;;;-1.72;100.00
34506;BME280;20748;42.632;23.198;2023-01-28T02:37:09;91331.72;;;-1.85;100.00
34506;BME280;20748;42.632;23.198;2023-01-28T02:39:44;91340.41;;;-1.86;100.00
34506;BME280;20748;42.632;23.198;2023-01-28T02:42:20;91345.81;;;-1.82;100.00
34506;BME280;20748;42.632;23.198;2023-01-28T02:44:55;91339.50;;;-1.74;100.00
34506;BME280;20748;42.632;23.198;2023-01-28T02:47:27;91344.25;;;-1.83;100.00
34506;BME280;20748;42.632;23.198;2023-01-28T02:50:33;91333.25;;;-1.84;100.00
34506;BME280;20748;42.632;23.198;2023-01-28T02:53:12;91330.59;;;-1.94;100.00
34506;BME280;20748;42.632;23.198;2023-01-28T02:56:11;91335.28;;;-1.86;100.00
34506;BME280;20748;42.632;23.198;2023-01-28T02:58:46;91336.16;;;-1.75;100.00
34506;BME280;20748;42.632;23.198;2023-01-28T03:01:24;91337.84;;;-1.86;100.00
34506;BME280;20748;42.632;23.198;2023-01-28T03:03:59;91335.56;;;-1.82;100.00
34506;BME280;20748;42.632;23.198;2023-01-28T03:06:36;91351.81;;;-1.71;100.00
34506;BME280;20748;42.632;23.198;2023-01-28T03:09:10;91342.94;;;-1.64;100.00
34506;BME280;20748;42.632;23.198;2023-01-28T03:11:59;91343.56;;;-1.56;100.00
34506;BME280;20748;42.632;23.198;2023-01-28T03:14:53;91346.09;;;-1.79;100.00
34506;BME280;20748;42.632;23.198;2023-01-28T03:17:46;91353.47;;;-2.05;100.00
34506;BME280;20748;42.632;23.198;2023-01-28T03:20:40;91348.81;;;-2.08;100.00
34506;BME280;20748;42.632;23.198;2023-01-28T03:23:33;91356.09;;;-1.99;100.00
34506;BME280;20748;42.632;23.198;2023-01-28T03:26:26;91354.56;;;-2.00;100.00
34506;BME280;20748;42.632;23.198;2023-01-28T03:29:18;91351.41;;;-1.85;100.00
34506;BME280;20748;42.632;23.198;2023-01-28T03:32:14;91350.91;;;-1.82;100.00
34506;BME280;20748;42.632;23.198;2023-01-28T03:35:05;91354.03;;;-1.80;100.00
34506;BME280;20748;42.632;23.198;2023-01-28T03:37:57;91353.38;;;-1.70;100.00
34506;BME280;20748;42.632;23.198;2023-01-28T03:40:32;91354.50;;;-1.83;100.00
34506;BME280;20748;42.632;23.198;2023-01-28T03:43:04;91356.81;;;-1.82;100.00
34506;BME280;20748;42.632;23.198;2023-01-28T03:45:37;91355.97;;;-1.87;100.00
34506;BME280;20748;42.632;23.198;2023-01-28T03:48:10;91360.84;;;-1.86;100.00
34506;BME280;20748;42.632;23.198;2023-01-28T03:50:44;91357.63;;;-1.76;100.00
34506;BME280;20748;42.632;23.198;2023-01-28T03:53:17;91357.75;;;-1.66;100.00
34506;BME280;20748;42.632;23.198;2023-01-28T03:55:51;91355.56;;;-1.57;100.00
34506;BME280;20748;42.632;23.198;2023-01-28T03:58:23;91365.31;;;-1.54;100.00
34506;BME280;20748;42.632;23.198;2023-01-28T04:00:57;91363.47;;;-1.58;100.00
34506;BME280;20748;42.632;23.198;2023-01-28T04:03:29;91365.78;;;-1.57;100.00
34506;BME280;20748;42.632;23.198;2023-01-28T04:06:05;91367.41;;;-1.51;100.00
34506;BME280;20748;42.632;23.198;2023-01-28T04:08:57;91371.75;;;-1.73;100.00
34506;BME280;20748;42.632;23.198;2023-01-28T04:11:53;91364.41;;;-1.87;100.00
34506;BME280;20748;42.632;23.198;2023-01-28T04:14:30;91374.94;;;-1.83;100.00
34506;BME280;20748;42.632;23.198;2023-01-28T04:17:09;91365.59;;;-1.72;100.00
34506;BME280;20748;42.632;23.198;2023-01-28T04:19:43;91374.78;;;-1.77;100.00
34506;BME280;20748;42.632;23.198;2023-01-28T04:22:15;91373.84;;;-1.70;100.00
34506;BME280;20748;42.632;23.198;2023-01-28T04:24:48;91373.19;;;-1.83;100.00
34506;BME280;20748;42.632;23.198;2023-01-28T04:27:22;91384.94;;;-1.82;100.00
34506;BME280;20748;42.632;23.198;2023-01-28T04:29:54;91382.88;;;-2.24;100.00
34506;BME280;20748;42.632;23.198;2023-01-28T04:32:42;91390.28;;;-2.06;100.00
34506;BME280;20748;42.632;23.198;2023-01-28T04:35:32;91389.69;;;-1.91;100.00
34506;BME280;20748;42.632;23.198;2023-01-28T04:38:28;91391.88;;;-1.99;100.00
34506;BME280;20748;42.632;23.198;2023-01-28T04:41:09;91391.00;;;-1.88;100.00
34506;BME280;20748;42.632;23.198;2023-01-28T04:43:42;91402.63;;;-1.80;100.00
34506;BME280;20748;42.632;23.198;2023-01-28T04:46:29;91396.78;;;-1.76;100.00
34506;BME280;20748;42.632;23.198;2023-01-28T04:49:07;91394.00;;;-1.74;100.00
34506;BME280;20748;42.632;23.198;2023-01-28T04:51:57;91396.13;;;-1.66;100.00
34506;BME280;20748;42.632;23.198;2023-01-28T04:54:45;91402.44;;;-1.73;100.00
34506;BME280;20748;42.632;23.198;2023-01-28T04:57:17;91404.75;;;-1.72;100.00
34506;BME280;20748;42.632;23.198;2023-01-28T04:59:50;91409.28;;;-1.79;100.00
34506;BME280;20748;42.632;23.198;2023-01-28T05:02:22;91423.50;;;-1.66;100.00
34506;BME280;20748;42.632;23.198;2023-01-28T05:04:54;91414.63;;;-1.58;100.00
34506;BME280;20748;42.632;23.198;2023-01-28T05:07:50;91412.06;;;-1.58;100.00
34506;BME280;20748;42.632;23.198;2023-01-28T05:10:23;91414.63;;;-1.58;100.00
34506;BME280;20748;42.632;23.198;2023-01-28T05:12:55;91415.94;;;-1.56;100.00
34506;BME280;20748;42.632;23.198;2023-01-28T05:15:27;91417.78;;;-1.51;100.00
34506;BME280;20748;42.632;23.198;2023-01-28T05:18:01;91424.16;;;-1.54;100.00
34506;BME280;20748;42.632;23.198;2023-01-28T05:20:38;91430.84;;;-1.53;100.00
34506;BME280;20748;42.632;23.198;2023-01-28T05:23:10;91432.69;;;-1.48;100.00
34506;BME280;20748;42.632;23.198;2023-01-28T05:25:54;91436.03;;;-1.47;100.00
34506;BME280;20748;42.632;23.198;2023-01-28T05:28:27;91435.22;;;-1.48;100.00
34506;BME280;20748;42.632;23.198;2023-01-28T05:31:02;91436.53;;;-1.45;100.00
34506;BME280;20748;42.632;23.198;2023-01-28T05:33:34;91437.25;;;-1.50;100.00
34506;BME280;20748;42.632;23.198;2023-01-28T05:36:08;91434.00;;;-1.45;100.00
34506;BME280;20748;42.632;23.198;2023-01-28T05:38:40;91439.41;;;-1.42;100.00
34506;BME280;20748;42.632;23.198;2023-01-28T05:41:13;91443.72;;;-1.42;100.00
34506;BME280;20748;42.632;23.198;2023-01-28T05:43:47;91449.28;;;-1.51;100.00
34506;BME280;20748;42.632;23.198;2023-01-28T05:46:39;91460.91;;;-1.60;100.00
34506;BME280;20748;42.632;23.198;2023-01-28T05:49:34;91459.78;;;-1.69;100.00
34506;BME280;20748;42.632;23.198;2023-01-28T05:52:32;91458.84;;;-1.63;100.00
34506;BME280;20748;42.632;23.198;2023-01-28T05:55:05;91467.59;;;-1.59;100.00
34506;BME280;20748;42.632;23.198;2023-01-28T05:57:39;91461.09;;;-1.67;100.00
34506;BME280;20748;42.632;23.198;2023-01-28T06:00:13;91465.91;;;-1.70;100.00
34506;BME280;20748;42.632;23.198;2023-01-28T06:02:46;91459.84;;;-1.64;100.00
34506;BME280;20748;42.632;23.198;2023-01-28T06:05:19;91463.88;;;-1.68;100.00
34506;BME280;20748;42.632;23.198;2023-01-28T06:07:52;91466.22;;;-1.67;100.00
34506;BME280;20748;42.632;23.198;2023-01-28T06:10:24;91472.72;;;-1.76;100.00
34506;BME280;20748;42.632;23.198;2023-01-28T06:12:57;91473.91;;;-1.67;100.00
34506;BME280;20748;42.632;23.198;2023-01-28T06:15:47;91477.84;;;-1.59;100.00
34506;BME280;20748;42.632;23.198;2023-01-28T06:18:28;91489.56;;;-1.97;100.00
34506;BME280;20748;42.632;23.198;2023-01-28T06:21:00;91488.78;;;-1.81;100.00
34506;BME280;20748;42.632;23.198;2023-01-28T06:23:32;91480.78;;;-1.67;100.00
34506;BME280;20748;42.632;23.198;2023-01-28T06:26:15;91492.56;;;-1.66;100.00
34506;BME280;20748;42.632;23.198;2023-01-28T06:28:50;91495.50;;;-1.57;100.00
34506;BME280;20748;42.632;23.198;2023-01-28T06:31:23;91499.44;;;-1.50;100.00
34506;BME280;20748;42.632;23.198;2023-01-28T06:33:55;91495.34;;;-1.51;100.00
34506;BME280;20748;42.632;23.198;2023-01-28T06:36:27;91499.72;;;-1.46;100.00
34506;BME280;20748;42.632;23.198;2023-01-28T06:38:59;91509.06;;;-1.57;100.00
34506;BME280;20748;42.632;23.198;2023-01-28T06:41:31;91502.41;;;-1.58;100.00
34506;BME280;20748;42.632;23.198;2023-01-28T06:44:04;91515.00;;;-1.51;100.00
34506;BME280;20748;42.632;23.198;2023-01-28T06:46:36;91516.97;;;-1.58;100.00
34506;BME280;20748;42.632;23.198;2023-01-28T06:49:08;91521.72;;;-1.67;100.00
34506;BME280;20748;42.632;23.198;2023-01-28T06:51:41;91525.22;;;-1.56;100.00
34506;BME280;20748;42.632;23.198;2023-01-28T06:54:13;91532.31;;;-1.58;100.00
34506;BME280;20748;42.632;23.198;2023-01-28T06:56:45;91536.13;;;-1.61;100.00
34506;BME280;20748;42.632;23.198;2023-01-28T06:59:18;91533.81;;;-1.80;100.00
34506;BME280;20748;42.632;23.198;2023-01-28T07:01:50;91540.09;;;-1.70;100.00
34506;BME280;20748;42.632;23.198;2023-01-28T07:04:22;91537.44;;;-1.58;100.00
34506;BME280;20748;42.632;23.198;2023-01-28T07:06:54;91546.44;;;-1.56;100.00
34506;BME280;20748;42.632;23.198;2023-01-28T07:09:26;91544.72;;;-1.67;100.00
34506;BME280;20748;42.632;23.198;2023-01-28T07:11:58;91549.78;;;-1.55;100.00
34506;BME280;20748;42.632;23.198;2023-01-28T07:14:31;91555.19;;;-1.52;100.00
34506;BME280;20748;42.632;23.198;2023-01-28T07:17:03;91551.00;;;-1.75;100.00
34506;BME280;20748;42.632;23.198;2023-01-28T07:19:35;91554.28;;;-1.80;100.00
34506;BME280;20748;42.632;23.198;2023-01-28T07:22:08;91564.97;;;-1.66;100.00
34506;BME280;20748;42.632;23.198;2023-01-28T07:24:40;91557.31;;;-1.66;100.00
34506;BME280;20748;42.632;23.198;2023-01-28T07:27:12;91566.38;;;-1.58;100.00
34506;BME280;20748;42.632;23.198;2023-01-28T07:29:45;91565.59;;;-1.58;100.00
34506;BME280;20748;42.632;23.198;2023-01-28T07:32:17;91569.84;;;-1.47;100.00
34506;BME280;20748;42.632;23.198;2023-01-28T07:34:49;91574.88;;;-1.52;100.00
34506;BME280;20748;42.632;23.198;2023-01-28T07:37:21;91577.28;;;-1.45;100.00
34506;BME280;20748;42.632;23.198;2023-01-28T07:39:53;91579.25;;;-1.53;100.00
34506;BME280;20748;42.632;23.198;2023-01-28T07:42:25;91574.66;;;-1.51;100.00
34506;BME280;20748;42.632;23.198;2023-01-28T07:44:58;91585.28;;;-1.42;100.00
34506;BME280;20748;42.632;23.198;2023-01-28T07:47:30;91580.75;;;-1.35;100.00
34506;BME280;20748;42.632;23.198;2023-01-28T07:50:03;91582.00;;;-1.37;100.00
34506;BME280;20748;42.632;23.198;2023-01-28T07:52:36;91583.41;;;-1.29;100.00
34506;BME280;20748;42.632;23.198;2023-01-28T07:55:14;91584.94;;;-1.28;100.00
34506;BME280;20748;42.632;23.198;2023-01-28T07:57:47;91584.41;;;-1.30;100.00
34506;BME280;20748;42.632;23.198;2023-01-28T08:00:21;91586.75;;;-1.29;100.00
34506;BME280;20748;42.632;23.198;2023-01-28T08:02:56;91591.22;;;-1.19;100.00
34506;BME280;20748;42.632;23.198;2023-01-28T08:05:31;91598.13;;;-1.19;100.00
34506;BME280;20748;42.632;23.198;2023-01-28T08:08:07;91603.31;;;-1.14;100.00
34506;BME280;20748;42.632;23.198;2023-01-28T08:10:39;91601.53;;;-1.14;100.00
34506;BME280;20748;42.632;23.198;2023-01-28T08:13:12;91605.63;;;-1.13;100.00
34506;BME280;20748;42.632;23.198;2023-01-28T08:15:45;91604.09;;;-1.14;100.00
34506;BME280;20748;42.632;23.198;2023-01-28T08:18:17;91610.63;;;-1.23;100.00
34506;BME280;20748;42.632;23.198;2023-01-28T08:20:53;91609.44;;;-1.15;100.00
34506;BME280;20748;42.632;23.198;2023-01-28T08:23:25;91613.69;;;-1.04;100.00
34506;BME280;20748;42.632;23.198;2023-01-28T08:25:58;91611.59;;;-1.07;100.00
34506;BME280;20748;42.632;23.198;2023-01-28T08:28:30;91605.63;;;-1.13;100.00
34506;BME280;20748;42.632;23.198;2023-01-28T08:31:03;91610.22;;;-1.32;100.00
34506;BME280;20748;42.632;23.198;2023-01-28T08:33:42;91621.94;;;-1.19;100.00
34506;BME280;20748;42.632;23.198;2023-01-28T08:36:14;91622.56;;;-1.12;100.00
34506;BME280;20748;42.632;23.198;2023-01-28T08:38:50;91622.81;;;-1.30;100.00
34506;BME280;20748;42.632;23.198;2023-01-28T08:41:24;91623.56;;;-1.13;100.00
34506;BME280;20748;42.632;23.198;2023-01-28T08:43:56;91622.31;;;-1.10;100.00
34506;BME280;20748;42.632;23.198;2023-01-28T08:46:30;91622.84;;;-1.08;100.00
34506;BME280;20748;42.632;23.198;2023-01-28T08:49:02;91625.25;;;-1.01;100.00
34506;BME280;20748;42.632;23.198;2023-01-28T08:51:34;91624.84;;;-0.93;100.00
34506;BME280;20748;42.632;23.198;2023-01-28T08:54:07;91628.25;;;-0.87;100.00
34506;BME280;20748;42.632;23.198;2023-01-28T08:56:39;91635.22;;;-0.83;100.00
34506;BME280;20748;42.632;23.198;2023-01-28T08:59:15;91627.91;;;-0.74;100.00
34506;BME280;20748;42.632;23.198;2023-01-28T09:01:47;91630.78;;;-0.70;100.00
34506;BME280;20748;42.632;23.198;2023-01-28T09:04:20;91629.34;;;-0.61;100.00
34506;BME280;20748;42.632;23.198;2023-01-28T09:06:52;91626.38;;;-0.75;100.00
34506;BME280;20748;42.632;23.198;2023-01-28T09:09:25;91627.50;;;-1.05;100.00
34506;BME280;20748;42.632;23.198;2023-01-28T09:11:57;91626.22;;;-0.85;100.00
34506;BME280;20748;42.632;23.198;2023-01-28T09:14:29;91632.81;;;-0.72;100.00
34506;BME280;20748;42.632;23.198;2023-01-28T09:17:02;91628.34;;;-0.60;100.00
34506;BME280;20748;42.632;23.198;2023-01-28T09:19:34;91625.47;;;-0.63;100.00
34506;BME280;20748;42.632;23.198;2023-01-28T09:22:07;91630.03;;;-0.65;100.00
34506;BME280;20748;42.632;23.198;2023-01-28T09:24:39;91632.97;;;-0.57;100.00
34506;BME280;20748;42.632;23.198;2023-01-28T09:27:11;91631.03;;;-0.49;100.00
34506;BME280;20748;42.632;23.198;2023-01-28T09:29:43;91625.91;;;-0.49;100.00
34506;BME280;20748;42.632;23.198;2023-01-28T09:32:16;91634.41;;;-0.66;100.00
34506;BME280;20748;42.632;23.198;2023-01-28T09:34:48;91629.75;;;-0.69;100.00
34506;BME280;20748;42.632;23.198;2023-01-28T09:37:20;91631.44;;;-0.58;100.00
34506;BME280;20748;42.632;23.198;2023-01-28T09:39:52;91631.63;;;-0.64;100.00
34506;BME280;20748;42.632;23.198;2023-01-28T09:42:32;91625.78;;;-0.99;100.00
34506;BME280;20748;42.632;23.198;2023-01-28T09:45:11;91630.16;;;-1.00;100.00
34506;BME280;20748;42.632;23.198;2023-01-28T09:47:47;91623.38;;;-0.89;100.00
34506;BME280;20748;42.632;23.198;2023-01-28T09:50:22;91628.91;;;-0.97;100.00
34506;BME280;20748;42.632;23.198;2023-01-28T09:52:58;91627.53;;;-0.83;100.00
34506;BME280;20748;42.632;23.198;2023-01-28T09:55:34;91623.09;;;-0.70;100.00
34506;BME280;20748;42.632;23.198;2023-01-28T09:58:09;91628.84;;;-0.80;100.00
34506;BME280;20748;42.632;23.198;2023-01-28T10:00:44;91621.66;;;-0.61;100.00
34506;BME280;20748;42.632;23.198;2023-01-28T10:03:27;91628.22;;;-0.48;100.00
34506;BME280;20748;42.632;23.198;2023-01-28T10:06:02;91631.91;;;-0.38;100.00
34506;BME280;20748;42.632;23.198;2023-01-28T10:08:42;91618.13;;;-0.32;100.00
34506;BME280;20748;42.632;23.198;2023-01-28T10:11:19;91618.00;;;-0.20;100.00
34506;BME280;20748;42.632;23.198;2023-01-28T10:13:55;91618.78;;;-0.20;100.00
34506;BME280;20748;42.632;23.198;2023-01-28T10:16:33;91614.22;;;-0.12;100.00
34506;BME280;20748;42.632;23.198;2023-01-28T10:19:11;91607.13;;;-0.05;100.00
34506;BME280;20748;42.632;23.198;2023-01-28T10:21:48;91612.31;;;0.00;100.00
34506;BME280;20748;42.632;23.198;2023-01-28T10:24:24;91607.03;;;-0.16;100.00
34506;BME280;20748;42.632;23.198;2023-01-28T10:27:01;91614.53;;;-0.09;100.00
34506;BME280;20748;42.632;23.198;2023-01-28T10:29:34;91618.66;;;-0.08;100.00
34506;BME280;20748;42.632;23.198;2023-01-28T10:32:12;91620.38;;;-0.14;100.00
34506;BME280;20748;42.632;23.198;2023-01-28T10:34:47;91619.25;;;-0.23;100.00
34506;BME280;20748;42.632;23.198;2023-01-28T10:37:19;91621.97;;;-0.07;100.00
34506;BME280;20748;42.632;23.198;2023-01-28T10:39:51;91619.47;;;-0.02;100.00
34506;BME280;20748;42.632;23.198;2023-01-28T10:42:26;91619.69;;;-0.04;100.00
34506;BME280;20748;42.632;23.198;2023-01-28T10:44:59;91612.25;;;-0.05;100.00
34506;BME280;20748;42.632;23.198;2023-01-28T10:47:33;91614.34;;;-0.02;100.00
34506;BME280;20748;42.632;23.198;2023-01-28T10:50:14;91613.66;;;0.08;100.00
34506;BME280;20748;42.632;23.198;2023-01-28T10:52:51;91617.28;;;0.12;100.00
34506;BME280;20748;42.632;23.198;2023-01-28T10:55:23;91614.47;;;0.13;100.00
34506;BME280;20748;42.632;23.198;2023-01-28T10:57:57;91615.78;;;0.16;100.00
34506;BME280;20748;42.632;23.198;2023-01-28T11:00:30;91613.69;;;0.13;100.00
34506;BME280;20748;42.632;23.198;2023-01-28T11:03:04;91615.34;;;0.24;100.00
34506;BME280;20748;42.632;23.198;2023-01-28T11:05:37;91619.91;;;0.17;100.00
34506;BME280;20748;42.632;23.198;2023-01-28T11:08:11;91621.69;;;0.17;100.00
34506;BME280;20748;42.632;23.198;2023-01-28T11:10:44;91618.63;;;0.20;100.00
34506;BME280;20748;42.632;23.198;2023-01-28T11:13:17;91610.22;;;0.24;100.00
34506;BME280;20748;42.632;23.198;2023-01-28T11:15:50;91613.56;;;0.25;100.00
34506;BME280;20748;42.632;23.198;2023-01-28T11:18:24;91621.34;;;-0.20;100.00
34506;BME280;20748;42.632;23.198;2023-01-28T11:21:00;91612.56;;;-0.02;100.00
34506;BME280;20748;42.632;23.198;2023-01-28T11:23:35;91609.44;;;-0.04;100.00
34506;BME280;20748;42.632;23.198;2023-01-28T11:26:13;91607.19;;;0.00;100.00
34506;BME280;20748;42.632;23.198;2023-01-28T11:28:47;91613.19;;;0.11;100.00
34506;BME280;20748;42.632;23.198;2023-01-28T11:31:20;91608.72;;;0.01;100.00
34506;BME280;20748;42.632;23.198;2023-01-28T11:33:54;91612.38;;;0.10;100.00
34506;BME280;20748;42.632;23.198;2023-01-28T11:36:29;91608.03;;;0.11;100.00
34506;BME280;20748;42.632;23.198;2023-01-28T11:39:02;91616.59;;;0.22;100.00
34506;BME280;20748;42.632;23.198;2023-01-28T11:41:36;91611.47;;;0.22;100.00
34506;BME280;20748;42.632;23.198;2023-01-28T11:44:10;91609.53;;;0.07;100.00
34506;BME280;20748;42.632;23.198;2023-01-28T11:49:46;91600.88;;;0.13;100.00
34506;BME280;20748;42.632;23.198;2023-01-28T11:52:23;91608.47;;;0.30;100.00
34506;BME280;20748;42.632;23.198;2023-01-28T11:55:02;91608.03;;;0.38;100.00
34506;BME280;20748;42.632;23.198;2023-01-28T11:57:43;91606.91;;;0.29;100.00
34506;BME280;20748;42.632;23.198;2023-01-28T12:00:34;91602.38;;;0.09;100.00
34506;BME280;20748;42.632;23.198;2023-01-28T12:03:14;91601.94;;;-0.10;100.00
34506;BME280;20748;42.632;23.198;2023-01-28T12:05:50;91605.44;;;0.06;100.00
34506;BME280;20748;42.632;23.198;2023-01-28T12:08:25;91603.00;;;0.21;100.00
34506;BME280;20748;42.632;23.198;2023-01-28T12:11:11;91608.63;;;0.18;100.00
34506;BME280;20748;42.632;23.198;2023-01-28T12:13:51;91602.06;;;0.05;100.00
34506;BME280;20748;42.632;23.198;2023-01-28T12:16:40;91604.03;;;-0.07;100.00
34506;BME280;20748;42.632;23.198;2023-01-28T12:19:16;91611.34;;;0.06;100.00
34506;BME280;20748;42.632;23.198;2023-01-28T12:21:59;91605.19;;;0.07;100.00
34506;BME280;20748;42.632;23.198;2023-01-28T12:24:39;91605.31;;;0.23;100.00
34506;BME280;20748;42.632;23.198;2023-01-28T12:27:17;91611.69;;;0.20;100.00
34506;BME280;20748;42.632;23.198;2023-01-28T12:29:56;91607.63;;;0.24;100.00
34506;BME280;20748;42.632;23.198;2023-01-28T12:32:35;91615.44;;;0.35;100.00
34506;BME280;20748;42.632;23.198;2023-01-28T12:35:19;91613.78;;;0.23;100.00
34506;BME280;20748;42.632;23.198;2023-01-28T12:37:58;91616.66;;;0.27;100.00
34506;BME280;20748;42.632;23.198;2023-01-28T12:40:42;91618.03;;;0.40;100.00
34506;BME280;20748;42.632;23.198;2023-01-28T12:43:18;91620.66;;;0.45;100.00
34506;BME280;20748;42.632;23.198;2023-01-28T12:45:53;91625.06;;;0.50;100.00
34506;BME280;20748;42.632;23.198;2023-01-28T12:48:27;91629.69;;;0.53;100.00
34506;BME280;20748;42.632;23.198;2023-01-28T12:51:02;91626.84;;;0.49;99.64
34506;BME280;20748;42.632;23.198;2023-01-28T12:53:44;91627.81;;;0.43;100.00
34506;BME280;20748;42.632;23.198;2023-01-28T12:56:20;91629.53;;;0.32;100.00
34506;BME280;20748;42.632;23.198;2023-01-28T12:58:55;91636.25;;;0.38;100.00
34506;BME280;20748;42.632;23.198;2023-01-28T13:01:29;91635.78;;;0.42;99.82
34506;BME280;20748;42.632;23.198;2023-01-28T13:04:08;91632.56;;;0.29;100.00
34506;BME280;20748;42.632;23.198;2023-01-28T13:06:43;91639.59;;;0.39;100.00
34506;BME280;20748;42.632;23.198;2023-01-28T13:09:18;91639.59;;;0.39;100.00
34506;BME280;20748;42.632;23.198;2023-01-28T13:11:53;91643.94;;;0.38;100.00
34506;BME280;20748;42.632;23.198;2023-01-28T13:14:29;91648.06;;;0.39;99.74
34506;BME280;20748;42.632;23.198;2023-01-28T13:17:09;91655.53;;;0.41;99.06
34506;BME280;20748;42.632;23.198;2023-01-28T13:19:41;91644.28;;;0.47;100.00
34506;BME280;20748;42.632;23.198;2023-01-28T13:22:24;91649.47;;;0.52;100.00
34506;BME280;20748;42.632;23.198;2023-01-28T13:25:10;91661.78;;;0.50;98.87
34506;BME280;20748;42.632;23.198;2023-01-28T13:27:53;91659.22;;;0.50;99.07
34506;BME280;20748;42.632;23.198;2023-01-28T13:30:26;91659.72;;;0.52;99.12
34506;BME280;20748;42.632;23.198;2023-01-28T13:33:01;91660.53;;;0.58;98.65
34506;BME280;20748;42.632;23.198;2023-01-28T13:35:34;91659.03;;;0.62;98.79